sensor_id;sensor_type;location;lat;lon;timestamp;temperature;humidity
8832;DHT22;4452;50.756;4.472;2022-07-23T00:01:19;15.30;99.90
8832;DHT22;4452;50.756;4.472;2022-07-23T00:03:45;15.30;99.90
8832;DHT22;4452;50.756;4.472;2022-07-23T00:06:11;15.30;99.90
8832;DHT22;4452;50.756;4.472;2022-07-23T00:08:36;15.30;99.90
8832;DHT22;4452;50.756;4.472;2022-07-23T00:11:02;15.20;99.90
8832;DHT22;4452;50.756;4.472;2022-07-23T00:13:28;15.20;99.90
8832;DHT22;4452;50.756;4.472;2022-07-23T00:15:54;15.20;99.90
8832;DHT22;4452;50.756;4.472;2022-07-23T00:18:20;15.20;99.90
8832;DHT22;4452;50.756;4.472;2022-07-23T00:20:46;15.20;99.90
8832;DHT22;4452;50.756;4.472;2022-07-23T00:23:12;15.10;99.90
8832;DHT22;4452;50.756;4.472;2022-07-23T00:25:37;15.10;99.90
8832;DHT22;4452;50.756;4.472;2022-07-23T00:28:03;15.00;99.90
8832;DHT22;4452;50.756;4.472;2022-07-23T00:30:30;15.00;99.90
8832;DHT22;4452;50.756;4.472;2022-07-23T00:33:01;15.00;99.90
8832;DHT22;4452;50.756;4.472;2022-07-23T00:35:30;15.00;99.90
8832;DHT22;4452;50.756;4.472;2022-07-23T00:37:56;15.00;99.90
8832;DHT22;4452;50.756;4.472;2022-07-23T00:40:22;14.90;99.90
8832;DHT22;4452;50.756;4.472;2022-07-23T00:42:48;14.90;99.90
8832;DHT22;4452;50.756;4.472;2022-07-23T00:45:13;14.90;99.90
8832;DHT22;4452;50.756;4.472;2022-07-23T00:47:40;14.90;99.90
8832;DHT22;4452;50.756;4.472;2022-07-23T00:50:07;15.00;99.90
8832;DHT22;4452;50.756;4.472;2022-07-23T00:52:35;15.00;99.90
8832;DHT22;4452;50.756;4.472;2022-07-23T00:55:01;14.90;99.90
8832;DHT22;4452;50.756;4.472;2022-07-23T00:57:27;14.90;99.90
8832;DHT22;4452;50.756;4.472;2022-07-23T00:59:53;14.90;99.90
8832;DHT22;4452;50.756;4.472;2022-07-23T01:02:18;14.90;99.90
8832;DHT22;4452;50.756;4.472;2022-07-23T01:04:45;14.80;99.90
8832;DHT22;4452;50.756;4.472;2022-07-23T01:07:10;14.90;99.90
8832;DHT22;4452;50.756;4.472;2022-07-23T01:09:37;14.80;99.90
8832;DHT22;4452;50.756;4.472;2022-07-23T01:12:03;14.80;99.90
8832;DHT22;4452;50.756;4.472;2022-07-23T01:14:29;14.70;99.90
8832;DHT22;4452;50.756;4.472;2022-07-23T01:16:55;14.80;99.90
8832;DHT22;4452;50.756;4.472;2022-07-23T01:19:21;14.70;99.90
8832;DHT22;4452;50.756;4.472;2022-07-23T01:21:49;14.70;99.90
8832;DHT22;4452;50.756;4.472;2022-07-23T01:24:16;14.70;99.90
8832;DHT22;4452;50.756;4.472;2022-07-23T01:26:45;14.70;99.90
8832;DHT22;4452;50.756;4.472;2022-07-23T01:29:11;14.70;99.90
8832;DHT22;4452;50.756;4.472;2022-07-23T01:31:37;14.70;99.90
8832;DHT22;4452;50.756;4.472;2022-07-23T01:34:02;14.70;99.90
8832;DHT22;4452;50.756;4.472;2022-07-23T01:36:29;14.70;99.90
8832;DHT22;4452;50.756;4.472;2022-07-23T01:38:55;14.70;99.90
8832;DHT22;4452;50.756;4.472;2022-07-23T01:41:21;14.60;99.90
8832;DHT22;4452;50.756;4.472;2022-07-23T01:43:47;14.60;99.90
8832;DHT22;4452;50.756;4.472;2022-07-23T01:46:12;14.60;99.90
8832;DHT22;4452;50.756;4.472;2022-07-23T01:48:38;14.50;99.90
8832;DHT22;4452;50.756;4.472;2022-07-23T01:51:04;14.50;99.90
8832;DHT22;4452;50.756;4.472;2022-07-23T01:53:30;14.50;99.90
8832;DHT22;4452;50.756;4.472;2022-07-23T01:55:58;14.50;99.90
8832;DHT22;4452;50.756;4.472;2022-07-23T01:58:25;14.40;99.90
8832;DHT22;4452;50.756;4.472;2022-07-23T02:00:51;14.50;99.90
8832;DHT22;4452;50.756;4.472;2022-07-23T02:03:17;14.50;99.90
8832;DHT22;4452;50.756;4.472;2022-07-23T02:05:43;14.50;99.90
8832;DHT22;4452;50.756;4.472;2022-07-23T02:08:08;14.50;99.90
8832;DHT22;4452;50.756;4.472;2022-07-23T02:10:34;14.50;99.90
8832;DHT22;4452;50.756;4.472;2022-07-23T02:12:59;14.50;99.90
8832;DHT22;4452;50.756;4.472;2022-07-23T02:15:26;14.50;99.90
8832;DHT22;4452;50.756;4.472;2022-07-23T02:17:52;14.40;99.90
8832;DHT22;4452;50.756;4.472;2022-07-23T02:20:17;14.40;99.90
8832;DHT22;4452;50.756;4.472;2022-07-23T02:22:44;14.40;99.90
8832;DHT22;4452;50.756;4.472;2022-07-23T02:25:09;14.40;99.90
8832;DHT22;4452;50.756;4.472;2022-07-23T02:27:36;14.40;99.90
8832;DHT22;4452;50.756;4.472;2022-07-23T02:30:02;14.40;99.90
8832;DHT22;4452;50.756;4.472;2022-07-23T02:32:28;14.40;99.90
8832;DHT22;4452;50.756;4.472;2022-07-23T02:34:54;14.30;99.90
8832;DHT22;4452;50.756;4.472;2022-07-23T02:37:20;14.30;99.90
8832;DHT22;4452;50.756;4.472;2022-07-23T02:39:45;14.30;99.90
8832;DHT22;4452;50.756;4.472;2022-07-23T02:42:11;14.30;99.90
8832;DHT22;4452;50.756;4.472;2022-07-23T02:44:38;14.30;99.90
8832;DHT22;4452;50.756;4.472;2022-07-23T02:47:04;14.30;99.90
8832;DHT22;4452;50.756;4.472;2022-07-23T02:49:29;14.20;99.90
8832;DHT22;4452;50.756;4.472;2022-07-23T02:51:55;14.30;99.90
8832;DHT22;4452;50.756;4.472;2022-07-23T02:54:21;14.30;99.90
8832;DHT22;4452;50.756;4.472;2022-07-23T02:56:46;14.20;99.90
8832;DHT22;4452;50.756;4.472;2022-07-23T02:59:12;14.20;99.90
8832;DHT22;4452;50.756;4.472;2022-07-23T03:01:38;14.20;99.90
8832;DHT22;4452;50.756;4.472;2022-07-23T03:04:03;14.10;99.90
8832;DHT22;4452;50.756;4.472;2022-07-23T03:06:29;14.10;99.90
8832;DHT22;4452;50.756;4.472;2022-07-23T03:08:55;14.10;99.90
8832;DHT22;4452;50.756;4.472;2022-07-23T03:11:20;14.00;99.90
8832;DHT22;4452;50.756;4.472;2022-07-23T03:13:46;14.00;99.90
8832;DHT22;4452;50.756;4.472;2022-07-23T03:16:12;14.00;99.90
8832;DHT22;4452;50.756;4.472;2022-07-23T03:18:37;14.00;99.90
8832;DHT22;4452;50.756;4.472;2022-07-23T03:21:03;13.90;99.90
8832;DHT22;4452;50.756;4.472;2022-07-23T03:23:29;14.00;99.90
8832;DHT22;4452;50.756;4.472;2022-07-23T03:25:55;14.00;99.90
8832;DHT22;4452;50.756;4.472;2022-07-23T03:28:21;14.00;99.90
8832;DHT22;4452;50.756;4.472;2022-07-23T03:30:47;14.00;99.90
8832;DHT22;4452;50.756;4.472;2022-07-23T03:33:13;14.10;99.90
8832;DHT22;4452;50.756;4.472;2022-07-23T03:35:39;14.10;99.90
8832;DHT22;4452;50.756;4.472;2022-07-23T03:38:05;14.10;99.90
8832;DHT22;4452;50.756;4.472;2022-07-23T03:40:31;14.00;99.90
8832;DHT22;4452;50.756;4.472;2022-07-23T03:42:57;13.90;99.90
8832;DHT22;4452;50.756;4.472;2022-07-23T03:45:22;13.90;99.90
8832;DHT22;4452;50.756;4.472;2022-07-23T03:47:48;13.90;99.90
8832;DHT22;4452;50.756;4.472;2022-07-23T03:50:14;13.90;99.90
8832;DHT22;4452;50.756;4.472;2022-07-23T03:52:39;13.90;99.90
8832;DHT22;4452;50.756;4.472;2022-07-23T03:55:06;13.90;99.90
8832;DHT22;4452;50.756;4.472;2022-07-23T03:57:31;13.90;99.90
8832;DHT22;4452;50.756;4.472;2022-07-23T03:59:57;13.90;99.90
8832;DHT22;4452;50.756;4.472;2022-07-23T04:02:24;13.90;99.90
8832;DHT22;4452;50.756;4.472;2022-07-23T04:04:50;14.00;99.90
8832;DHT22;4452;50.756;4.472;2022-07-23T04:07:16;14.00;99.90
8832;DHT22;4452;50.756;4.472;2022-07-23T04:09:44;14.10;99.90
8832;DHT22;4452;50.756;4.472;2022-07-23T04:12:09;14.10;99.90
8832;DHT22;4452;50.756;4.472;2022-07-23T04:14:36;14.20;99.90
8832;DHT22;4452;50.756;4.472;2022-07-23T04:17:02;14.30;99.90
8832;DHT22;4452;50.756;4.472;2022-07-23T04:19:27;14.30;99.90
8832;DHT22;4452;50.756;4.472;2022-07-23T04:21:53;14.40;99.90
8832;DHT22;4452;50.756;4.472;2022-07-23T04:24:19;14.50;99.90
8832;DHT22;4452;50.756;4.472;2022-07-23T04:26:45;14.50;99.90
8832;DHT22;4452;50.756;4.472;2022-07-23T04:29:10;14.50;99.90
8832;DHT22;4452;50.756;4.472;2022-07-23T04:31:36;14.50;99.90
8832;DHT22;4452;50.756;4.472;2022-07-23T04:34:02;14.60;99.90
8832;DHT22;4452;50.756;4.472;2022-07-23T04:36:28;14.60;99.90
8832;DHT22;4452;50.756;4.472;2022-07-23T04:38:54;14.60;99.90
8832;DHT22;4452;50.756;4.472;2022-07-23T04:41:20;14.60;99.90
8832;DHT22;4452;50.756;4.472;2022-07-23T04:43:46;14.70;99.90
8832;DHT22;4452;50.756;4.472;2022-07-23T04:46:12;14.80;99.90
8832;DHT22;4452;50.756;4.472;2022-07-23T04:48:37;14.80;99.90
8832;DHT22;4452;50.756;4.472;2022-07-23T04:51:03;14.90;99.90
8832;DHT22;4452;50.756;4.472;2022-07-23T04:53:29;14.90;99.90
8832;DHT22;4452;50.756;4.472;2022-07-23T04:55:55;15.00;99.90
8832;DHT22;4452;50.756;4.472;2022-07-23T04:58:21;15.00;99.90
8832;DHT22;4452;50.756;4.472;2022-07-23T05:00:47;15.10;99.90
8832;DHT22;4452;50.756;4.472;2022-07-23T05:03:13;15.10;99.90
8832;DHT22;4452;50.756;4.472;2022-07-23T05:05:38;15.10;99.90
8832;DHT22;4452;50.756;4.472;2022-07-23T05:08:04;15.30;99.90
8832;DHT22;4452;50.756;4.472;2022-07-23T05:10:30;15.30;99.90
8832;DHT22;4452;50.756;4.472;2022-07-23T05:12:56;15.40;99.90
8832;DHT22;4452;50.756;4.472;2022-07-23T05:15:22;15.50;99.90
8832;DHT22;4452;50.756;4.472;2022-07-23T05:17:47;15.60;99.90
8832;DHT22;4452;50.756;4.472;2022-07-23T05:20:13;15.60;99.90
8832;DHT22;4452;50.756;4.472;2022-07-23T05:22:39;15.70;99.90
8832;DHT22;4452;50.756;4.472;2022-07-23T05:25:05;15.90;99.90
8832;DHT22;4452;50.756;4.472;2022-07-23T05:27:31;15.90;99.90
8832;DHT22;4452;50.756;4.472;2022-07-23T05:29:57;16.10;99.90
8832;DHT22;4452;50.756;4.472;2022-07-23T05:32:23;16.10;99.90
8832;DHT22;4452;50.756;4.472;2022-07-23T05:34:48;16.10;99.90
8832;DHT22;4452;50.756;4.472;2022-07-23T05:37:14;16.20;99.90
8832;DHT22;4452;50.756;4.472;2022-07-23T05:39:39;16.20;99.90
8832;DHT22;4452;50.756;4.472;2022-07-23T05:42:05;16.20;99.90
8832;DHT22;4452;50.756;4.472;2022-07-23T05:44:31;16.20;99.90
8832;DHT22;4452;50.756;4.472;2022-07-23T05:46:56;16.20;99.90
8832;DHT22;4452;50.756;4.472;2022-07-23T05:49:22;16.20;99.90
8832;DHT22;4452;50.756;4.472;2022-07-23T05:51:48;16.20;99.90
8832;DHT22;4452;50.756;4.472;2022-07-23T05:54:14;16.10;99.90
8832;DHT22;4452;50.756;4.472;2022-07-23T05:56:39;16.30;99.90
8832;DHT22;4452;50.756;4.472;2022-07-23T05:59:05;16.20;99.90
8832;DHT22;4452;50.756;4.472;2022-07-23T06:01:31;16.30;99.90
8832;DHT22;4452;50.756;4.472;2022-07-23T06:03:57;16.20;99.90
8832;DHT22;4452;50.756;4.472;2022-07-23T06:06:23;16.20;99.90
8832;DHT22;4452;50.756;4.472;2022-07-23T06:08:49;16.20;99.90
8832;DHT22;4452;50.756;4.472;2022-07-23T06:11:15;16.40;99.90
8832;DHT22;4452;50.756;4.472;2022-07-23T06:13:41;16.40;99.90
8832;DHT22;4452;50.756;4.472;2022-07-23T06:16:07;16.60;99.90
8832;DHT22;4452;50.756;4.472;2022-07-23T06:18:32;16.70;99.90
8832;DHT22;4452;50.756;4.472;2022-07-23T06:20:58;16.90;99.90
8832;DHT22;4452;50.756;4.472;2022-07-23T06:23:24;17.00;99.90
8832;DHT22;4452;50.756;4.472;2022-07-23T06:25:49;17.10;99.90
8832;DHT22;4452;50.756;4.472;2022-07-23T06:28:15;17.10;99.90
8832;DHT22;4452;50.756;4.472;2022-07-23T06:30:41;17.30;99.90
8832;DHT22;4452;50.756;4.472;2022-07-23T06:33:07;17.40;99.90
8832;DHT22;4452;50.756;4.472;2022-07-23T06:35:33;17.50;99.90
8832;DHT22;4452;50.756;4.472;2022-07-23T06:37:59;17.70;99.90
8832;DHT22;4452;50.756;4.472;2022-07-23T06:40:25;17.80;99.90
8832;DHT22;4452;50.756;4.472;2022-07-23T06:42:51;17.80;99.90
8832;DHT22;4452;50.756;4.472;2022-07-23T06:45:16;17.80;99.90
8832;DHT22;4452;50.756;4.472;2022-07-23T06:47:42;17.80;99.90
8832;DHT22;4452;50.756;4.472;2022-07-23T06:50:08;17.70;99.90
8832;DHT22;4452;50.756;4.472;2022-07-23T06:52:34;17.70;99.90
8832;DHT22;4452;50.756;4.472;2022-07-23T06:55:00;17.70;99.90
8832;DHT22;4452;50.756;4.472;2022-07-23T06:57:25;17.60;99.90
8832;DHT22;4452;50.756;4.472;2022-07-23T06:59:52;17.70;99.90
8832;DHT22;4452;50.756;4.472;2022-07-23T07:02:17;17.80;99.90
8832;DHT22;4452;50.756;4.472;2022-07-23T07:04:43;17.80;99.90
8832;DHT22;4452;50.756;4.472;2022-07-23T07:07:09;17.90;99.90
8832;DHT22;4452;50.756;4.472;2022-07-23T07:09:35;18.10;99.90
8832;DHT22;4452;50.756;4.472;2022-07-23T07:12:00;18.30;99.90
8832;DHT22;4452;50.756;4.472;2022-07-23T07:14:26;18.40;99.90
8832;DHT22;4452;50.756;4.472;2022-07-23T07:16:52;18.40;99.90
8832;DHT22;4452;50.756;4.472;2022-07-23T07:19:18;18.50;99.90
8832;DHT22;4452;50.756;4.472;2022-07-23T07:21:43;18.70;99.90
8832;DHT22;4452;50.756;4.472;2022-07-23T07:24:09;18.90;99.90
8832;DHT22;4452;50.756;4.472;2022-07-23T07:26:34;19.00;99.90
8832;DHT22;4452;50.756;4.472;2022-07-23T07:29:00;18.90;99.90
8832;DHT22;4452;50.756;4.472;2022-07-23T07:31:26;18.90;99.90
8832;DHT22;4452;50.756;4.472;2022-07-23T07:33:51;18.90;99.90
8832;DHT22;4452;50.756;4.472;2022-07-23T07:36:17;18.80;99.90
8832;DHT22;4452;50.756;4.472;2022-07-23T07:38:43;18.90;99.90
8832;DHT22;4452;50.756;4.472;2022-07-23T07:41:08;18.90;99.90
8832;DHT22;4452;50.756;4.472;2022-07-23T07:43:36;19.10;99.90
8832;DHT22;4452;50.756;4.472;2022-07-23T07:46:03;19.10;99.90
8832;DHT22;4452;50.756;4.472;2022-07-23T07:48:29;19.10;99.90
8832;DHT22;4452;50.756;4.472;2022-07-23T07:50:55;19.50;99.90
8832;DHT22;4452;50.756;4.472;2022-07-23T07:53:21;19.60;99.90
8832;DHT22;4452;50.756;4.472;2022-07-23T07:55:46;19.60;99.90
8832;DHT22;4452;50.756;4.472;2022-07-23T07:58:12;19.60;99.90
8832;DHT22;4452;50.756;4.472;2022-07-23T08:00:38;19.60;99.90
8832;DHT22;4452;50.756;4.472;2022-07-23T08:03:03;19.60;99.90
8832;DHT22;4452;50.756;4.472;2022-07-23T08:05:30;19.60;99.90
8832;DHT22;4452;50.756;4.472;2022-07-23T08:07:57;19.30;99.90
8832;DHT22;4452;50.756;4.472;2022-07-23T08:10:24;19.60;99.90
8832;DHT22;4452;50.756;4.472;2022-07-23T08:12:52;19.70;99.90
8832;DHT22;4452;50.756;4.472;2022-07-23T08:15:20;19.90;99.90
8832;DHT22;4452;50.756;4.472;2022-07-23T08:17:47;20.10;99.90
8832;DHT22;4452;50.756;4.472;2022-07-23T08:20:14;20.30;99.90
8832;DHT22;4452;50.756;4.472;2022-07-23T08:25:16;20.40;99.90
8832;DHT22;4452;50.756;4.472;2022-07-23T08:27:42;20.50;99.90
8832;DHT22;4452;50.756;4.472;2022-07-23T08:30:08;20.70;99.90
8832;DHT22;4452;50.756;4.472;2022-07-23T08:32:57;20.60;99.90
8832;DHT22;4452;50.756;4.472;2022-07-23T08:35:44;20.80;99.90
8832;DHT22;4452;50.756;4.472;2022-07-23T08:38:16;21.20;99.90
8832;DHT22;4452;50.756;4.472;2022-07-23T08:40:45;20.90;99.90
8832;DHT22;4452;50.756;4.472;2022-07-23T08:43:13;20.70;99.90
8832;DHT22;4452;50.756;4.472;2022-07-23T08:45:44;20.80;99.90
8832;DHT22;4452;50.756;4.472;2022-07-23T08:48:14;21.20;99.90
8832;DHT22;4452;50.756;4.472;2022-07-23T08:50:46;21.40;99.90
8832;DHT22;4452;50.756;4.472;2022-07-23T08:53:12;21.10;99.90
8832;DHT22;4452;50.756;4.472;2022-07-23T08:55:39;21.40;99.90
8832;DHT22;4452;50.756;4.472;2022-07-23T08:58:06;21.40;99.90
8832;DHT22;4452;50.756;4.472;2022-07-23T09:00:31;21.50;99.90
8832;DHT22;4452;50.756;4.472;2022-07-23T09:02:57;21.80;99.90
8832;DHT22;4452;50.756;4.472;2022-07-23T09:05:23;21.50;99.90
8832;DHT22;4452;50.756;4.472;2022-07-23T09:15:53;22.20;99.90
8832;DHT22;4452;50.756;4.472;2022-07-23T09:18:19;22.60;99.90
8832;DHT22;4452;50.756;4.472;2022-07-23T09:20:45;22.50;99.90
8832;DHT22;4452;50.756;4.472;2022-07-23T09:23:11;22.60;99.90
8832;DHT22;4452;50.756;4.472;2022-07-23T09:25:36;22.60;99.90
8832;DHT22;4452;50.756;4.472;2022-07-23T09:28:03;22.80;99.90
8832;DHT22;4452;50.756;4.472;2022-07-23T09:30:30;22.40;99.90
8832;DHT22;4452;50.756;4.472;2022-07-23T09:33:11;22.80;99.90
8832;DHT22;4452;50.756;4.472;2022-07-23T09:35:54;22.90;99.90
8832;DHT22;4452;50.756;4.472;2022-07-23T09:38:24;23.10;99.90
8832;DHT22;4452;50.756;4.472;2022-07-23T09:41:25;23.10;99.90
8832;DHT22;4452;50.756;4.472;2022-07-23T09:44:07;22.60;99.90
8832;DHT22;4452;50.756;4.472;2022-07-23T09:46:33;22.40;99.90
8832;DHT22;4452;50.756;4.472;2022-07-23T09:49:10;22.60;99.90
8832;DHT22;4452;50.756;4.472;2022-07-23T09:51:55;22.70;99.90
8832;DHT22;4452;50.756;4.472;2022-07-23T09:56:57;23.30;99.90
8832;DHT22;4452;50.756;4.472;2022-07-23T09:59:26;23.60;99.90
8832;DHT22;4452;50.756;4.472;2022-07-23T10:01:56;23.50;99.90
8832;DHT22;4452;50.756;4.472;2022-07-23T10:04:25;23.30;99.90
8832;DHT22;4452;50.756;4.472;2022-07-23T10:06:53;23.00;99.90
8832;DHT22;4452;50.756;4.472;2022-07-23T10:09:27;23.20;99.90
8832;DHT22;4452;50.756;4.472;2022-07-23T10:11:55;23.20;99.90
8832;DHT22;4452;50.756;4.472;2022-07-23T10:14:25;23.30;99.90
8832;DHT22;4452;50.756;4.472;2022-07-23T10:16:51;23.50;99.90
8832;DHT22;4452;50.756;4.472;2022-07-23T10:19:18;23.70;99.90
8832;DHT22;4452;50.756;4.472;2022-07-23T10:21:51;23.80;99.90
8832;DHT22;4452;50.756;4.472;2022-07-23T10:27:30;23.90;99.90
8832;DHT22;4452;50.756;4.472;2022-07-23T10:30:09;24.00;99.90
8832;DHT22;4452;50.756;4.472;2022-07-23T10:33:38;24.40;99.90
8832;DHT22;4452;50.756;4.472;2022-07-23T10:35:56;24.80;99.90
8832;DHT22;4452;50.756;4.472;2022-07-23T10:43:21;24.40;99.90
8832;DHT22;4452;50.756;4.472;2022-07-23T10:45:47;24.50;99.90
8832;DHT22;4452;50.756;4.472;2022-07-23T10:48:19;24.80;99.90
8832;DHT22;4452;50.756;4.472;2022-07-23T10:51:18;24.20;99.90
8832;DHT22;4452;50.756;4.472;2022-07-23T10:53:57;24.40;99.90
8832;DHT22;4452;50.756;4.472;2022-07-23T10:59:22;25.30;99.90
8832;DHT22;4452;50.756;4.472;2022-07-23T11:01:49;25.20;99.90
8832;DHT22;4452;50.756;4.472;2022-07-23T11:04:15;25.40;99.90
8832;DHT22;4452;50.756;4.472;2022-07-23T11:09:42;25.80;99.90
8832;DHT22;4452;50.756;4.472;2022-07-23T11:17:24;25.40;99.90
8832;DHT22;4452;50.756;4.472;2022-07-23T11:25:28;25.90;99.90
8832;DHT22;4452;50.756;4.472;2022-07-23T11:27:54;25.90;99.90
8832;DHT22;4452;50.756;4.472;2022-07-23T11:32:54;26.10;99.90
8832;DHT22;4452;50.756;4.472;2022-07-23T11:35:25;25.60;99.90
8832;DHT22;4452;50.756;4.472;2022-07-23T11:37:52;25.90;99.90
8832;DHT22;4452;50.756;4.472;2022-07-23T11:40:24;25.80;99.90
8832;DHT22;4452;50.756;4.472;2022-07-23T11:43:05;25.60;99.90
8832;DHT22;4452;50.756;4.472;2022-07-23T11:45:41;25.80;99.90
8832;DHT22;4452;50.756;4.472;2022-07-23T11:48:09;25.80;99.90
8832;DHT22;4452;50.756;4.472;2022-07-23T11:50:36;26.00;99.90
8832;DHT22;4452;50.756;4.472;2022-07-23T11:53:03;25.30;99.90
8832;DHT22;4452;50.756;4.472;2022-07-23T11:55:28;25.50;99.90
8832;DHT22;4452;50.756;4.472;2022-07-23T11:57:55;26.10;99.90
8832;DHT22;4452;50.756;4.472;2022-07-23T12:00:26;26.10;99.90
8832;DHT22;4452;50.756;4.472;2022-07-23T12:02:58;26.00;99.90
8832;DHT22;4452;50.756;4.472;2022-07-23T12:05:33;25.30;99.90
8832;DHT22;4452;50.756;4.472;2022-07-23T12:08:01;26.20;99.90
8832;DHT22;4452;50.756;4.472;2022-07-23T12:10:38;26.50;99.90
8832;DHT22;4452;50.756;4.472;2022-07-23T12:13:12;26.70;99.90
8832;DHT22;4452;50.756;4.472;2022-07-23T12:15:42;25.50;99.90
8832;DHT22;4452;50.756;4.472;2022-07-23T12:18:10;24.60;99.90
8832;DHT22;4452;50.756;4.472;2022-07-23T12:20:41;24.70;99.90
8832;DHT22;4452;50.756;4.472;2022-07-23T12:23:09;25.10;99.90
8832;DHT22;4452;50.756;4.472;2022-07-23T12:25:41;25.70;99.90
8832;DHT22;4452;50.756;4.472;2022-07-23T12:28:19;26.00;99.90
8832;DHT22;4452;50.756;4.472;2022-07-23T12:30:47;26.20;99.90
8832;DHT22;4452;50.756;4.472;2022-07-23T12:33:24;26.90;99.90
8832;DHT22;4452;50.756;4.472;2022-07-23T12:35:50;27.10;99.90
8832;DHT22;4452;50.756;4.472;2022-07-23T12:38:19;27.10;99.90
8832;DHT22;4452;50.756;4.472;2022-07-23T12:40:46;26.40;99.90
8832;DHT22;4452;50.756;4.472;2022-07-23T12:50:48;26.80;99.90
8832;DHT22;4452;50.756;4.472;2022-07-23T12:53:20;26.90;99.90
8832;DHT22;4452;50.756;4.472;2022-07-23T12:55:47;27.70;99.90
8832;DHT22;4452;50.756;4.472;2022-07-23T12:58:18;27.90;99.90
8832;DHT22;4452;50.756;4.472;2022-07-23T13:01:03;29.10;99.90
8832;DHT22;4452;50.756;4.472;2022-07-23T13:05:57;27.50;99.90
8832;DHT22;4452;50.756;4.472;2022-07-23T13:08:24;27.30;99.90
8832;DHT22;4452;50.756;4.472;2022-07-23T13:10:50;27.60;99.90
8832;DHT22;4452;50.756;4.472;2022-07-23T13:13:20;26.60;99.90
8832;DHT22;4452;50.756;4.472;2022-07-23T13:15:46;26.50;99.90
8832;DHT22;4452;50.756;4.472;2022-07-23T13:18:12;25.80;99.90
8832;DHT22;4452;50.756;4.472;2022-07-23T13:20:38;25.40;99.90
8832;DHT22;4452;50.756;4.472;2022-07-23T13:23:07;25.80;99.90
8832;DHT22;4452;50.756;4.472;2022-07-23T13:25:33;26.20;99.90
8832;DHT22;4452;50.756;4.472;2022-07-23T13:27:59;26.70;99.90
8832;DHT22;4452;50.756;4.472;2022-07-23T13:30:25;27.20;99.90
8832;DHT22;4452;50.756;4.472;2022-07-23T13:32:50;27.50;99.90
8832;DHT22;4452;50.756;4.472;2022-07-23T13:35:16;27.50;99.90
8832;DHT22;4452;50.756;4.472;2022-07-23T13:37:42;28.00;99.90
8832;DHT22;4452;50.756;4.472;2022-07-23T13:40:08;27.60;99.90
8832;DHT22;4452;50.756;4.472;2022-07-23T13:42:33;26.90;99.90
8832;DHT22;4452;50.756;4.472;2022-07-23T13:44:59;27.00;99.90
8832;DHT22;4452;50.756;4.472;2022-07-23T13:47:25;27.50;99.90
8832;DHT22;4452;50.756;4.472;2022-07-23T13:49:50;28.10;99.90
8832;DHT22;4452;50.756;4.472;2022-07-23T13:52:16;28.70;99.90
8832;DHT22;4452;50.756;4.472;2022-07-23T13:54:42;28.60;99.90
8832;DHT22;4452;50.756;4.472;2022-07-23T13:57:08;28.00;99.90
8832;DHT22;4452;50.756;4.472;2022-07-23T13:59:35;27.40;99.90
8832;DHT22;4452;50.756;4.472;2022-07-23T14:02:05;27.40;99.90
8832;DHT22;4452;50.756;4.472;2022-07-23T14:04:31;28.10;99.90
8832;DHT22;4452;50.756;4.472;2022-07-23T14:06:57;27.50;99.90
8832;DHT22;4452;50.756;4.472;2022-07-23T14:09:23;27.40;99.90
8832;DHT22;4452;50.756;4.472;2022-07-23T14:11:48;27.50;99.90
8832;DHT22;4452;50.756;4.472;2022-07-23T14:14:16;27.70;99.90
8832;DHT22;4452;50.756;4.472;2022-07-23T14:16:42;28.10;99.90
8832;DHT22;4452;50.756;4.472;2022-07-23T14:19:08;28.00;99.90
8832;DHT22;4452;50.756;4.472;2022-07-23T14:21:33;28.30;99.90
8832;DHT22;4452;50.756;4.472;2022-07-23T14:23:59;28.20;99.90
8832;DHT22;4452;50.756;4.472;2022-07-23T14:26:25;28.20;99.90
8832;DHT22;4452;50.756;4.472;2022-07-23T14:28:50;28.40;99.90
8832;DHT22;4452;50.756;4.472;2022-07-23T14:31:16;29.10;99.90
8832;DHT22;4452;50.756;4.472;2022-07-23T14:33:42;29.40;99.90
8832;DHT22;4452;50.756;4.472;2022-07-23T14:36:07;30.10;99.90
8832;DHT22;4452;50.756;4.472;2022-07-23T14:38:33;31.10;99.90
8832;DHT22;4452;50.756;4.472;2022-07-23T14:40:59;31.50;99.90
8832;DHT22;4452;50.756;4.472;2022-07-23T14:43:25;31.20;99.90
8832;DHT22;4452;50.756;4.472;2022-07-23T14:45:51;30.10;99.90
8832;DHT22;4452;50.756;4.472;2022-07-23T14:48:16;28.70;99.90
8832;DHT22;4452;50.756;4.472;2022-07-23T14:50:42;28.10;99.90
8832;DHT22;4452;50.756;4.472;2022-07-23T14:53:08;28.20;99.90
8832;DHT22;4452;50.756;4.472;2022-07-23T14:55:33;29.30;99.90
8832;DHT22;4452;50.756;4.472;2022-07-23T14:58:00;30.00;99.90
8832;DHT22;4452;50.756;4.472;2022-07-23T15:00:26;30.20;99.90
8832;DHT22;4452;50.756;4.472;2022-07-23T15:02:52;31.10;99.90
8832;DHT22;4452;50.756;4.472;2022-07-23T15:05:19;30.40;99.90
8832;DHT22;4452;50.756;4.472;2022-07-23T15:07:45;31.70;99.90
8832;DHT22;4452;50.756;4.472;2022-07-23T15:10:11;31.70;99.90
8832;DHT22;4452;50.756;4.472;2022-07-23T15:12:37;33.20;98.60
8832;DHT22;4452;50.756;4.472;2022-07-23T15:15:03;33.10;98.90
8832;DHT22;4452;50.756;4.472;2022-07-23T15:17:29;32.30;98.80
8832;DHT22;4452;50.756;4.472;2022-07-23T15:19:55;33.10;99.10
8832;DHT22;4452;50.756;4.472;2022-07-23T15:22:21;32.50;98.80
8832;DHT22;4452;50.756;4.472;2022-07-23T15:24:47;30.20;99.80
8832;DHT22;4452;50.756;4.472;2022-07-23T15:27:13;30.60;99.90
8832;DHT22;4452;50.756;4.472;2022-07-23T15:29:38;31.90;99.90
8832;DHT22;4452;50.756;4.472;2022-07-23T15:32:05;30.80;99.80
8832;DHT22;4452;50.756;4.472;2022-07-23T15:34:31;31.90;99.30
8832;DHT22;4452;50.756;4.472;2022-07-23T15:37:00;33.30;96.80
8832;DHT22;4452;50.756;4.472;2022-07-23T15:39:26;32.20;97.40
8832;DHT22;4452;50.756;4.472;2022-07-23T15:41:52;31.70;97.90
8832;DHT22;4452;50.756;4.472;2022-07-23T15:44:17;33.70;94.90
8832;DHT22;4452;50.756;4.472;2022-07-23T15:46:44;33.60;95.00
8832;DHT22;4452;50.756;4.472;2022-07-23T15:49:10;32.50;96.30
8832;DHT22;4452;50.756;4.472;2022-07-23T15:51:38;32.40;96.60
8832;DHT22;4452;50.756;4.472;2022-07-23T15:54:04;32.20;97.00
8832;DHT22;4452;50.756;4.472;2022-07-23T15:56:30;30.00;98.80
8832;DHT22;4452;50.756;4.472;2022-07-23T15:58:55;29.70;99.90
8832;DHT22;4452;50.756;4.472;2022-07-23T16:01:21;30.80;99.50
8832;DHT22;4452;50.756;4.472;2022-07-23T16:03:47;31.40;98.70
8832;DHT22;4452;50.756;4.472;2022-07-23T16:06:13;32.40;97.40
8832;DHT22;4452;50.756;4.472;2022-07-23T16:08:39;33.50;96.80
8832;DHT22;4452;50.756;4.472;2022-07-23T16:11:05;33.50;95.30
8832;DHT22;4452;50.756;4.472;2022-07-23T16:13:30;33.30;95.10
8832;DHT22;4452;50.756;4.472;2022-07-23T16:15:56;34.10;95.00
8832;DHT22;4452;50.756;4.472;2022-07-23T16:18:23;32.90;93.90
8832;DHT22;4452;50.756;4.472;2022-07-23T16:20:51;32.70;97.00
8832;DHT22;4452;50.756;4.472;2022-07-23T16:23:17;33.60;94.90
8832;DHT22;4452;50.756;4.472;2022-07-23T16:25:43;32.10;95.70
8832;DHT22;4452;50.756;4.472;2022-07-23T16:28:09;32.00;98.30
8832;DHT22;4452;50.756;4.472;2022-07-23T16:30:36;33.40;94.60
8832;DHT22;4452;50.756;4.472;2022-07-23T16:33:02;32.40;95.50
8832;DHT22;4452;50.756;4.472;2022-07-23T16:35:28;32.20;95.70
8832;DHT22;4452;50.756;4.472;2022-07-23T16:37:53;34.00;93.90
8832;DHT22;4452;50.756;4.472;2022-07-23T16:40:19;34.10;92.90
8832;DHT22;4452;50.756;4.472;2022-07-23T16:42:45;35.00;91.20
8832;DHT22;4452;50.756;4.472;2022-07-23T16:45:11;34.80;91.60
8832;DHT22;4452;50.756;4.472;2022-07-23T16:47:37;33.60;92.50
8832;DHT22;4452;50.756;4.472;2022-07-23T16:50:05;34.30;92.50
8832;DHT22;4452;50.756;4.472;2022-07-23T16:52:32;35.00;90.70